createdAt,value
2022-10-09T00:01:46.043Z,99217.53
2022-10-09T00:04:13.315Z,99223.31
2022-10-09T00:06:40.312Z,99222.66
2022-10-09T00:09:07.532Z,99220.16
2022-10-09T00:11:34.988Z,99224.03
2022-10-09T00:14:02.943Z,99217.25
2022-10-09T00:16:30.158Z,99217.97
2022-10-09T00:18:58.319Z,99219.88
2022-10-09T00:21:30.455Z,99208.97
2022-10-09T00:23:59.390Z,99210.19
2022-10-09T00:26:27.167Z,99212.28
2022-10-09T00:28:54.588Z,99204.66
2022-10-09T00:31:22.683Z,99196.78
2022-10-09T00:33:49.794Z,99192.78
2022-10-09T00:36:21.788Z,99197.34
2022-10-09T00:38:49.627Z,99196.94
2022-10-09T00:41:26.499Z,99199.69
2022-10-09T00:43:56.696Z,99194.44
2022-10-09T00:46:41.947Z,99187.41
2022-10-09T00:49:17.534Z,99184.78
2022-10-09T00:51:46.307Z,99181.19
2022-10-09T00:54:15.792Z,99182.81
2022-10-09T00:56:42.987Z,99185.72
2022-10-09T00:59:11.174Z,99176.50
2022-10-09T01:01:39.896Z,99174.28
2022-10-09T01:04:07.088Z,99173.97
2022-10-09T01:07:11.229Z,99171.75
2022-10-09T01:09:44.220Z,99174.78
2022-10-09T01:12:12.993Z,99171.19
2022-10-09T01:14:50.250Z,99171.56
2022-10-09T01:17:36.681Z,99181.66
2022-10-09T01:20:28.977Z,99174.72
2022-10-09T01:23:35.210Z,99177.41
2022-10-09T01:26:39.319Z,99163.75
2022-10-09T01:29:08.101Z,99165.53
2022-10-09T01:31:38.641Z,99174.28
2022-10-09T01:34:06.671Z,99169.56
2022-10-09T01:36:34.566Z,99169.97
2022-10-09T01:39:03.872Z,99172.47
2022-10-09T01:41:31.135Z,99176.22
2022-10-09T01:43:58.136Z,99175.22
2022-10-09T01:46:30.962Z,99174.53
2022-10-09T01:49:23.218Z,99176.06
2022-10-09T01:52:11.594Z,99166.41
2022-10-09T01:54:41.543Z,99168.44
2022-10-09T01:57:10.566Z,99178.69
2022-10-09T01:59:39.823Z,99185.59
2022-10-09T02:02:07.871Z,99182.69
2022-10-09T02:04:37.517Z,99184.66
2022-10-09T02:07:05.085Z,99178.53
2022-10-09T02:09:32.875Z,99185.59
2022-10-09T02:12:04.323Z,99186.00
2022-10-09T02:14:31.341Z,99185.44
2022-10-09T02:17:05.282Z,99193.06
2022-10-09T02:19:46.075Z,99192.53
2022-10-09T02:22:17.739Z,99201.37
2022-10-09T02:24:45.273Z,99200.56
2022-10-09T02:27:13.257Z,99199.44
2022-10-09T02:29:42.061Z,99202.91
2022-10-09T02:32:10.291Z,99202.06
2022-10-09T02:34:37.390Z,99200.00
2022-10-09T02:37:04.494Z,99204.69
2022-10-09T02:39:31.805Z,99213.69
2022-10-09T02:41:58.821Z,99203.44
2022-10-09T02:44:25.897Z,99217.69
2022-10-09T02:46:53.532Z,99206.91
2022-10-09T02:49:20.634Z,99217.69
2022-10-09T02:51:47.969Z,99219.75
2022-10-09T02:54:15.258Z,99220.16
2022-10-09T02:56:42.240Z,99228.44
2022-10-09T02:59:09.353Z,99226.81
2022-10-09T03:01:36.826Z,99226.22
2022-10-09T03:04:04.435Z,99228.69
2022-10-09T03:06:31.822Z,99237.47
2022-10-09T03:08:59.115Z,99233.19
2022-10-09T03:11:26.634Z,99233.19
2022-10-09T03:13:54.599Z,99235.94
2022-10-09T03:16:24.122Z,99235.66
2022-10-09T03:18:52.183Z,99230.94
2022-10-09T03:21:21.495Z,99228.31
2022-10-09T03:23:50.152Z,99226.94
2022-10-09T03:26:20.433Z,99224.19
2022-10-09T03:28:49.010Z,99228.91
2022-10-09T03:31:39.311Z,99223.37
2022-10-09T03:34:04.939Z,99222.59
2022-10-09T03:36:32.217Z,99225.91
2022-10-09T03:38:59.639Z,99232.84
2022-10-09T03:41:26.654Z,99231.63
2022-10-09T03:43:53.971Z,99229.00
2022-10-09T03:46:21.022Z,99229.66
2022-10-09T03:48:48.107Z,99242.66
2022-10-09T03:51:15.402Z,99246.37
2022-10-09T03:53:42.416Z,99253.56
2022-10-09T03:56:09.411Z,99255.25
2022-10-09T03:58:36.723Z,99248.88
2022-10-09T04:01:03.803Z,99260.91
2022-10-09T04:03:31.205Z,99263.69
2022-10-09T04:05:58.179Z,99251.22
2022-10-09T04:08:25.337Z,99254.56
2022-10-09T04:10:59.785Z,99255.38
2022-10-09T04:13:27.156Z,99255.53
2022-10-09T04:15:55.131Z,99259.97
2022-10-09T04:18:22.772Z,99257.59
2022-10-09T04:20:51.236Z,99254.13
2022-10-09T04:23:19.516Z,99247.09
2022-10-09T04:25:46.795Z,99242.81
2022-10-09T04:28:14.005Z,99255.78
2022-10-09T04:30:41.380Z,99269.47
2022-10-09T04:33:12.705Z,99260.50
2022-10-09T04:35:44.261Z,99279.88
2022-10-09T04:38:11.776Z,99280.38
2022-10-09T04:40:38.765Z,99285.78
2022-10-09T04:43:05.784Z,99279.16
2022-10-09T04:45:33.443Z,99296.94
2022-10-09T04:48:00.448Z,99297.59
2022-10-09T04:50:27.447Z,99306.00
2022-10-09T04:52:58.028Z,99313.97
2022-10-09T04:55:25.065Z,99315.44
2022-10-09T04:57:52.066Z,99313.22
2022-10-09T05:00:19.450Z,99312.81
2022-10-09T05:02:46.630Z,99319.03
2022-10-09T05:05:14.173Z,99317.94
2022-10-09T05:07:41.441Z,99317.13
2022-10-09T05:10:08.746Z,99316.13
2022-10-09T05:12:35.718Z,99320.03
2022-10-09T05:15:03.125Z,99325.03
2022-10-09T05:17:30.178Z,99326.69
2022-10-09T05:19:57.191Z,99318.94
2022-10-09T05:22:24.872Z,99325.03
2022-10-09T05:24:51.829Z,99317.97
2022-10-09T05:27:18.834Z,99323.94
2022-10-09T05:29:46.119Z,99324.38
2022-10-09T05:32:13.287Z,99328.78
2022-10-09T05:34:40.394Z,99334.19
2022-10-09T05:37:07.666Z,99332.25
2022-10-09T05:39:36.010Z,99343.47
2022-10-09T05:42:03.140Z,99349.41
2022-10-09T05:44:30.432Z,99344.16
2022-10-09T05:46:57.401Z,99352.97
2022-10-09T05:49:24.510Z,99351.34
2022-10-09T05:51:51.818Z,99352.03
2022-10-09T05:54:18.814Z,99357.72
2022-10-09T05:56:46.112Z,99354.38
2022-10-09T05:59:15.848Z,99355.09
2022-10-09T06:01:45.074Z,99367.50
2022-10-09T06:04:15.768Z,99381.72
2022-10-09T06:06:43.285Z,99364.66
2022-10-09T06:09:11.636Z,99375.91
2022-10-09T06:11:39.585Z,99372.56
2022-10-09T06:14:09.246Z,99377.38
2022-10-09T06:16:42.173Z,99381.69
2022-10-09T06:19:12.542Z,99383.03
2022-10-09T06:21:39.732Z,99390.66
2022-10-09T06:24:07.174Z,99397.38
2022-10-09T06:26:34.976Z,99398.66
2022-10-09T06:29:02.499Z,99401.31
2022-10-09T06:31:32.325Z,99395.72
2022-10-09T06:34:01.065Z,99404.22
2022-10-09T06:36:30.165Z,99404.00
2022-10-09T06:38:59.370Z,99404.03
2022-10-09T06:41:28.265Z,99409.34
2022-10-09T06:44:00.209Z,99397.22
2022-10-09T06:46:39.414Z,99407.72
2022-10-09T06:49:07.523Z,99413.81
2022-10-09T06:51:35.188Z,99414.41
2022-10-09T06:54:05.011Z,99413.75
2022-10-09T06:56:32.419Z,99419.41
2022-10-09T06:59:00.845Z,99415.28
2022-10-09T07:01:32.443Z,99428.00
2022-10-09T07:04:06.979Z,99423.84
2022-10-09T07:06:37.669Z,99422.78
2022-10-09T07:09:07.036Z,99423.47
2022-10-09T07:11:39.612Z,99430.00
2022-10-09T07:14:08.674Z,99438.03
2022-10-09T07:16:37.956Z,99432.22
2022-10-09T07:19:07.754Z,99435.81
2022-10-09T07:21:35.767Z,99439.88
2022-10-09T07:24:03.940Z,99435.03
2022-10-09T07:26:32.947Z,99444.44
2022-10-09T07:29:00.489Z,99441.09
2022-10-09T07:31:27.532Z,99436.63
2022-10-09T07:33:56.857Z,99442.03
2022-10-09T07:36:24.776Z,99447.16
2022-10-09T07:38:53.550Z,99449.06
2022-10-09T07:41:21.198Z,99455.31
2022-10-09T07:43:48.504Z,99449.66
2022-10-09T07:46:17.868Z,99454.88
2022-10-09T07:48:45.759Z,99459.84
2022-10-09T07:51:18.681Z,99460.56
2022-10-09T07:53:46.263Z,99467.06
2022-10-09T07:56:17.908Z,99459.78
2022-10-09T07:58:53.063Z,99456.44
2022-10-09T08:01:21.275Z,99457.56
2022-10-09T08:03:49.530Z,99456.44
2022-10-09T08:06:17.440Z,99455.03
2022-10-09T08:08:44.752Z,99458.91
2022-10-09T08:11:14.947Z,99458.41
2022-10-09T08:13:42.439Z,99460.59
2022-10-09T08:16:09.632Z,99467.78
2022-10-09T08:18:37.039Z,99461.28
2022-10-09T08:21:14.724Z,99456.69
2022-10-09T08:23:42.446Z,99458.72
2022-10-09T08:26:18.370Z,99458.25
2022-10-09T08:28:57.513Z,99455.03
2022-10-09T08:31:25.254Z,99450.59
2022-10-09T08:33:56.556Z,99462.03
2022-10-09T08:36:24.099Z,99459.66
2022-10-09T08:38:51.540Z,99462.81
2022-10-09T08:41:34.061Z,99463.28
2022-10-09T08:44:13.328Z,99459.81
2022-10-09T08:47:10.815Z,99460.56
2022-10-09T08:49:37.727Z,99462.69
2022-10-09T08:52:21.599Z,99461.41
2022-10-09T08:54:50.053Z,99471.22
2022-10-09T08:57:17.805Z,99464.78
2022-10-09T08:59:44.960Z,99472.03
2022-10-09T09:02:38.068Z,99474.66
2022-10-09T09:05:53.222Z,99477.94
2022-10-09T09:08:31.867Z,99472.41
2022-10-09T09:11:21.439Z,99475.00
2022-10-09T09:14:21.955Z,99482.41
2022-10-09T09:16:54.749Z,99484.22
2022-10-09T09:19:33.874Z,99495.09
2022-10-09T09:22:01.173Z,99491.59
2022-10-09T09:24:35.462Z,99495.56
2022-10-09T09:27:13.235Z,99493.00
2022-10-09T09:29:45.303Z,99507.00
2022-10-09T09:32:22.497Z,99504.53
2022-10-09T09:34:54.184Z,99501.09
2022-10-09T09:37:21.495Z,99502.00
2022-10-09T09:40:34.941Z,99514.50
2022-10-09T09:42:35.777Z,99507.91
2022-10-09T09:45:05.366Z,99511.38
2022-10-09T09:47:40.730Z,99508.47
2022-10-09T09:50:28.561Z,99514.16
2022-10-09T09:53:01.870Z,99511.53
2022-10-09T09:55:31.586Z,99507.25
2022-10-09T09:58:07.338Z,99510.59
2022-10-09T10:00:35.451Z,99510.38
2022-10-09T10:03:17.045Z,99508.81
2022-10-09T10:05:44.957Z,99507.53
2022-10-09T10:08:22.841Z,99518.66
2022-10-09T10:10:51.764Z,99506.09
2022-10-09T10:13:21.812Z,99515.56
2022-10-09T10:15:54.750Z,99519.50
2022-10-09T10:18:24.668Z,99512.59
2022-10-09T10:20:55.596Z,99509.59
2022-10-09T10:23:33.311Z,99511.28
2022-10-09T10:26:07.062Z,99514.94
2022-10-09T10:28:41.521Z,99512.63
2022-10-09T10:31:15.179Z,99506.31
2022-10-09T10:33:43.116Z,99514.91
2022-10-09T10:36:11.005Z,99509.16
2022-10-09T10:38:55.670Z,99511.56
2022-10-09T10:41:32.536Z,99509.56
2022-10-09T10:44:08.318Z,99518.91
2022-10-09T10:46:44.534Z,99517.41
2022-10-09T10:49:11.929Z,99512.28
2022-10-09T10:51:45.090Z,99515.56
2022-10-09T10:54:27.243Z,99507.13
2022-10-09T10:57:05.790Z,99506.19
2022-10-09T10:59:39.472Z,99510.31
2022-10-09T11:02:09.868Z,99512.13
2022-10-09T11:04:47.086Z,99499.03
2022-10-09T11:07:17.057Z,99503.56
2022-10-09T11:10:11.408Z,99499.53
2022-10-09T11:12:53.064Z,99499.88
2022-10-09T11:15:34.231Z,99503.50
2022-10-09T11:18:16.748Z,99506.78
2022-10-09T11:21:19.166Z,99495.66
2022-10-09T11:24:11.895Z,99508.22
2022-10-09T11:27:50.509Z,99503.34
2022-10-09T11:30:18.443Z,99498.91
2022-10-09T11:32:45.378Z,99483.22
2022-10-09T11:35:12.337Z,99492.09
2022-10-09T11:37:42.201Z,99497.25
2022-10-09T11:40:15.515Z,99496.50
2022-10-09T11:42:43.311Z,99493.53
2022-10-09T11:45:27.215Z,99480.94
2022-10-09T11:48:08.561Z,99489.19
2022-10-09T11:51:06.393Z,99484.38
2022-10-09T11:53:37.045Z,99489.91
2022-10-09T11:56:06.356Z,99491.28
2022-10-09T11:58:34.101Z,99483.88
2022-10-09T12:01:13.780Z,99481.38
2022-10-09T12:03:41.595Z,99489.22
2022-10-09T12:06:13.625Z,99474.94
2022-10-09T12:09:02.235Z,99476.88
2022-10-09T12:11:29.977Z,99484.03
2022-10-09T12:14:02.888Z,99473.94
2022-10-09T12:16:40.939Z,99472.34
2022-10-09T12:19:20.456Z,99473.69
2022-10-09T12:21:51.119Z,99473.25
2022-10-09T12:24:22.954Z,99476.06
2022-10-09T12:26:51.289Z,99473.00
2022-10-09T12:29:27.882Z,99466.69
2022-10-09T12:31:58.538Z,99469.97
2022-10-09T12:34:36.755Z,99468.37
2022-10-09T12:37:36.349Z,99471.09
2022-10-09T12:40:10.402Z,99470.53
2022-10-09T12:42:37.293Z,99462.53
2022-10-09T12:45:05.527Z,99461.28
2022-10-09T12:47:34.882Z,99464.31
2022-10-09T12:50:17.197Z,99462.63
2022-10-09T12:52:57.354Z,99456.34
2022-10-09T12:55:36.270Z,99466.25
2022-10-09T12:58:12.053Z,99453.88
2022-10-09T13:00:39.844Z,99435.44
2022-10-09T13:03:37.870Z,99445.00
2022-10-09T13:06:08.026Z,99442.81
2022-10-09T13:08:38.214Z,99438.38
2022-10-09T13:11:35.306Z,99442.59
2022-10-09T13:14:03.077Z,99440.09
2022-10-09T13:16:44.864Z,99432.25
2022-10-09T13:19:38.492Z,99435.16
2022-10-09T13:22:16.059Z,99431.47
2022-10-09T13:24:43.426Z,99435.91
2022-10-09T13:27:12.019Z,99433.50
2022-10-09T13:29:39.229Z,99433.69
2022-10-09T13:32:08.967Z,99433.59
2022-10-09T13:34:35.921Z,99427.53
2022-10-09T13:37:02.909Z,99434.59
2022-10-09T13:39:30.222Z,99436.16
2022-10-09T13:41:59.021Z,99423.16
2022-10-09T13:44:26.246Z,99425.81
2022-10-09T13:46:53.606Z,99426.25
2022-10-09T13:49:20.640Z,99421.31
2022-10-09T13:51:47.659Z,99418.53
2022-10-09T13:54:17.797Z,99417.38
2022-10-09T13:56:44.817Z,99419.84
2022-10-09T13:59:12.160Z,99415.75
2022-10-09T14:01:39.551Z,99422.94
2022-10-09T14:04:06.909Z,99421.19
2022-10-09T14:06:36.076Z,99423.03
2022-10-09T14:09:05.224Z,99420.03
2022-10-09T14:11:32.714Z,99419.84
2022-10-09T14:13:59.775Z,99416.28
2022-10-09T14:16:27.722Z,99416.25
2022-10-09T14:19:03.378Z,99413.03
2022-10-09T14:21:30.581Z,99413.75
2022-10-09T14:23:59.899Z,99423.63
2022-10-09T14:26:27.614Z,99423.31
2022-10-09T14:28:59.122Z,99420.28
2022-10-09T14:31:26.701Z,99409.50
2022-10-09T14:33:56.747Z,99413.31
2022-10-09T14:36:23.952Z,99415.63
2022-10-09T14:38:51.306Z,99419.09
2022-10-09T14:41:18.623Z,99419.56
2022-10-09T14:43:46.765Z,99419.69
2022-10-09T14:46:17.118Z,99419.28
2022-10-09T14:48:45.482Z,99422.13
2022-10-09T14:51:15.249Z,99418.34
2022-10-09T14:53:42.699Z,99416.69
2022-10-09T14:56:16.224Z,99426.81
2022-10-09T14:58:43.522Z,99420.00
2022-10-09T15:01:15.097Z,99423.66
2022-10-09T15:03:42.709Z,99428.59
2022-10-09T15:06:11.813Z,99428.94
2022-10-09T15:08:40.939Z,99429.75
2022-10-09T15:11:09.382Z,99424.16
2022-10-09T15:13:37.279Z,99429.63
2022-10-09T15:16:07.054Z,99427.13
2022-10-09T15:18:34.326Z,99428.97
2022-10-09T15:21:01.846Z,99428.81
2022-10-09T15:23:29.038Z,99434.12
2022-10-09T15:25:57.891Z,99424.84
2022-10-09T15:28:25.599Z,99431.75
2022-10-09T15:30:59.616Z,99439.38
2022-10-09T15:33:27.561Z,99437.03
2022-10-09T15:35:54.613Z,99445.53
2022-10-09T15:38:23.728Z,99437.44
2022-10-09T15:40:55.579Z,99444.03
2022-10-09T15:43:26.049Z,99446.28
2022-10-09T15:46:01.551Z,99442.44
2022-10-09T15:48:28.518Z,99440.75
2022-10-09T15:50:55.851Z,99442.50
2022-10-09T15:53:24.467Z,99439.50
2022-10-09T15:55:53.082Z,99443.16
2022-10-09T15:58:20.750Z,99440.78
2022-10-09T16:00:49.333Z,99443.94
2022-10-09T16:03:18.962Z,99437.41
2022-10-09T16:05:48.922Z,99447.72
2022-10-09T16:08:17.451Z,99445.56
2022-10-09T16:10:49.534Z,99446.09
2022-10-09T16:13:16.882Z,99444.06
2022-10-09T16:15:47.030Z,99445.94
2022-10-09T16:18:15.528Z,99455.28
2022-10-09T16:20:42.814Z,99450.44
2022-10-09T16:23:10.232Z,99452.13
2022-10-09T16:25:38.323Z,99460.84
2022-10-09T16:28:07.058Z,99458.50
2022-10-09T16:30:39.688Z,99461.31
2022-10-09T16:33:12.238Z,99465.06
2022-10-09T16:35:40.199Z,99470.62
2022-10-09T16:38:07.653Z,99467.63
2022-10-09T16:41:00.870Z,99476.41
2022-10-09T16:43:22.301Z,99473.06
2022-10-09T16:45:49.327Z,99474.19
2022-10-09T16:48:16.336Z,99476.13
2022-10-09T16:50:43.608Z,99486.28
2022-10-09T16:53:10.644Z,99489.38
2022-10-09T16:55:37.675Z,99493.44
2022-10-09T16:58:05.190Z,99494.28
2022-10-09T17:00:32.253Z,99495.38
2022-10-09T17:02:59.352Z,99503.16
2022-10-09T17:05:28.142Z,99504.69
2022-10-09T17:07:55.185Z,99506.22
2022-10-09T17:10:22.282Z,99510.19
2022-10-09T17:12:49.608Z,99506.37
2022-10-09T17:15:16.668Z,99509.72
2022-10-09T17:17:43.668Z,99508.53
2022-10-09T17:20:10.993Z,99509.78
2022-10-09T17:22:38.011Z,99513.13
2022-10-09T17:25:05.665Z,99509.78
2022-10-09T17:27:33.467Z,99506.31
2022-10-09T17:30:00.454Z,99510.50
2022-10-09T17:32:27.554Z,99506.47
2022-10-09T17:34:54.821Z,99510.59
2022-10-09T17:37:21.861Z,99514.50
2022-10-09T17:39:52.383Z,99511.97
2022-10-09T17:42:19.861Z,99515.72
2022-10-09T17:44:46.888Z,99517.69
2022-10-09T17:47:13.886Z,99528.37
2022-10-09T17:49:41.257Z,99518.69
2022-10-09T17:52:08.274Z,99527.00
2022-10-09T17:54:35.266Z,99520.63
2022-10-09T17:57:05.210Z,99520.91
2022-10-09T17:59:34.337Z,99519.81
2022-10-09T18:02:01.370Z,99527.28
2022-10-09T18:04:28.652Z,99528.56
2022-10-09T18:06:55.737Z,99523.84
2022-10-09T18:09:22.736Z,99516.91
2022-10-09T18:11:50.059Z,99524.53
2022-10-09T18:14:17.123Z,99520.22
2022-10-09T18:16:44.294Z,99527.84
2022-10-09T18:19:14.522Z,99522.59
2022-10-09T18:21:44.255Z,99526.06
2022-10-09T18:24:12.145Z,99522.88
2022-10-09T18:26:39.386Z,99523.72
2022-10-09T18:29:06.636Z,99528.13
2022-10-09T18:31:34.402Z,99530.09
2022-10-09T18:34:01.740Z,99532.72
2022-10-09T18:36:34.448Z,99539.50
2022-10-09T18:39:13.341Z,99545.59
2022-10-09T18:41:40.667Z,99546.28
2022-10-09T18:44:17.311Z,99548.06
2022-10-09T18:46:56.384Z,99559.13
2022-10-09T18:49:27.722Z,99563.78
2022-10-09T18:51:54.993Z,99564.44
2022-10-09T18:54:24.221Z,99563.22
2022-10-09T18:56:51.676Z,99567.91
2022-10-09T18:59:21.048Z,99567.59
2022-10-09T19:01:48.501Z,99563.19
2022-10-09T19:04:15.862Z,99568.25
2022-10-09T19:06:42.841Z,99564.28
2022-10-09T19:09:10.081Z,99570.22
2022-10-09T19:11:37.386Z,99565.91
2022-10-09T19:14:04.640Z,99576.41
2022-10-09T19:16:33.999Z,99576.53
2022-10-09T19:19:01.462Z,99578.91
2022-10-09T19:21:28.519Z,99579.34
2022-10-09T19:23:55.704Z,99585.19
2022-10-09T19:26:23.282Z,99578.38
2022-10-09T19:28:50.338Z,99573.81
2022-10-09T19:31:18.306Z,99579.66
2022-10-09T19:33:45.653Z,99582.84
2022-10-09T19:36:13.701Z,99584.50
2022-10-09T19:38:41.016Z,99584.91
2022-10-09T19:41:10.545Z,99587.09
2022-10-09T19:43:38.438Z,99588.38
2022-10-09T19:46:11.224Z,99591.13
2022-10-09T19:48:38.561Z,99600.38
2022-10-09T19:51:14.296Z,99597.75
2022-10-09T19:53:43.383Z,99601.62
2022-10-09T19:56:17.065Z,99603.25
2022-10-09T19:58:44.832Z,99605.00
2022-10-09T20:01:17.536Z,99598.75
2022-10-09T20:03:45.006Z,99606.06
2022-10-09T20:06:12.496Z,99608.44
2022-10-09T20:08:40.908Z,99613.37
2022-10-09T20:11:11.292Z,99607.16
2022-10-09T20:13:39.684Z,99616.44
2022-10-09T20:16:10.335Z,99618.38
2022-10-09T20:18:42.357Z,99610.63
2022-10-09T20:21:14.730Z,99616.31
2022-10-09T20:23:44.269Z,99606.78
2022-10-09T20:26:13.762Z,99608.94
2022-10-09T20:28:41.100Z,99606.00
2022-10-09T20:31:14.679Z,99611.03
2022-10-09T20:33:42.497Z,99610.81
2022-10-09T20:36:28.745Z,99622.09
2022-10-09T20:38:57.569Z,99609.72
2022-10-09T20:41:25.960Z,99616.22
2022-10-09T20:43:54.068Z,99611.34
2022-10-09T20:46:23.754Z,99613.97
2022-10-09T20:48:52.053Z,99623.19
2022-10-09T20:51:19.832Z,99618.69
2022-10-09T20:53:51.243Z,99617.00
2022-10-09T20:56:19.247Z,99613.81
2022-10-09T20:58:46.264Z,99619.53
2022-10-09T21:01:15.388Z,99608.69
2022-10-09T21:03:43.503Z,99613.09
2022-10-09T21:06:13.504Z,99617.25
2022-10-09T21:08:40.545Z,99631.00
2022-10-09T21:11:10.116Z,99620.87
2022-10-09T21:13:38.089Z,99623.50
2022-10-09T21:16:06.704Z,99622.06
2022-10-09T21:18:34.342Z,99620.63
2022-10-09T21:21:19.380Z,99623.97
2022-10-09T21:23:51.297Z,99614.91
2022-10-09T21:26:19.441Z,99618.28
2022-10-09T21:28:47.218Z,99630.44
2022-10-09T21:31:23.431Z,99618.03
2022-10-09T21:33:50.747Z,99627.34
2022-10-09T21:36:51.117Z,99623.03
2022-10-09T21:39:27.651Z,99619.97
2022-10-09T21:41:55.298Z,99617.91
2022-10-09T21:44:22.272Z,99617.22
2022-10-09T21:46:49.584Z,99612.69
2022-10-09T21:49:23.806Z,99614.44
2022-10-09T21:51:51.566Z,99605.13
2022-10-09T21:54:18.663Z,99603.63
2022-10-09T21:56:45.692Z,99606.00
2022-10-09T21:59:13.298Z,99609.69
2022-10-09T22:01:40.338Z,99606.06
2022-10-09T22:04:08.013Z,99607.88
2022-10-09T22:06:34.972Z,99610.38
2022-10-09T22:09:01.977Z,99608.22
2022-10-09T22:11:29.282Z,99603.00
2022-10-09T22:13:56.270Z,99605.00
2022-10-09T22:16:23.524Z,99601.06
2022-10-09T22:18:50.864Z,99607.53
2022-10-09T22:21:18.327Z,99614.16
2022-10-09T22:23:45.451Z,99608.06
2022-10-09T22:26:18.226Z,99608.31
2022-10-09T22:28:47.062Z,99607.00
2022-10-09T22:31:19.544Z,99610.34
2022-10-09T22:33:54.527Z,99608.81
2022-10-09T22:36:24.108Z,99599.38
2022-10-09T22:38:55.971Z,99608.53
2022-10-09T22:41:24.156Z,99610.88
2022-10-09T22:43:53.571Z,99612.37
2022-10-09T22:46:23.373Z,99615.22
2022-10-09T22:48:51.310Z,99607.59
2022-10-09T22:51:19.533Z,99616.16
2022-10-09T22:53:47.245Z,99614.91
2022-10-09T22:56:22.503Z,99610.13
2022-10-09T22:58:51.711Z,99614.78
2022-10-09T23:01:29.973Z,99618.00
2022-10-09T23:04:02.263Z,99619.37
2022-10-09T23:06:29.600Z,99632.69
2022-10-09T23:08:57.109Z,99626.75
2022-10-09T23:11:24.811Z,99630.59
2022-10-09T23:13:56.737Z,99621.28
2022-10-09T23:16:24.606Z,99626.75
2022-10-09T23:18:51.891Z,99635.94
2022-10-09T23:21:21.877Z,99635.53
2022-10-09T23:23:49.742Z,99633.88
2022-10-09T23:26:22.730Z,99635.06
2022-10-09T23:28:51.575Z,99636.50
2022-10-09T23:31:19.369Z,99633.88
2022-10-09T23:33:46.634Z,99634.09
2022-10-09T23:36:16.936Z,99632.75
2022-10-09T23:38:44.327Z,99630.13
2022-10-09T23:41:14.407Z,99635.25
2022-10-09T23:43:42.767Z,99632.84
2022-10-09T23:46:13.316Z,99627.97
2022-10-09T23:48:40.331Z,99627.63
2022-10-09T23:51:07.516Z,99634.94
2022-10-09T23:53:35.496Z,99637.28
2022-10-09T23:56:26.262Z,99640.13
2022-10-09T23:58:54.650Z,99647.97
